Time;durP1;ratioP1;P1;durP2;ratioP2;P2;SDS_P1;SDS_P2;PMS_P1;PMS_P2;Temp;Humidity;BMP_temperature;BMP_pressure;BME280_temperature;BME280_humidity;BME280_pressure;Samples;Min_cycle;Max_cycle;Signal;HPM_P1;HPM_P2
2022/10/27 00:02:11;;;;;;;13.75;6.40;;;;;;;12.53;100.00;102131.59;5036253;28;20401;-78
2022/10/27 00:04:37;;;;;;;11.82;5.85;;;;;;;12.14;100.00;102072.28;5036307;28;20036;-79
2022/10/27 00:07:02;;;;;;;15.15;6.25;;;;;;;12.47;100.00;102131.06;5036042;28;20036;-78
2022/10/27 00:09:28;;;;;;;16.40;6.50;;;;;;;12.44;100.00;102139.84;5035881;28;20030;-78
2022/10/27 00:11:56;;;;;;;14.07;6.32;;;;;;;12.17;100.00;102100.59;5036139;28;20057;-76
2022/10/27 00:14:21;;;;;;;18.67;6.60;;;;;;;12.25;100.00;102108.81;5036123;28;20029;-77
2022/10/27 00:16:54;;;;;;;14.20;5.85;;;;;;;12.31;100.00;102133.59;5036257;28;20029;-77
2022/10/27 00:19:21;;;;;;;11.25;6.10;;;;;;;12.27;100.00;102137.25;5035984;28;20079;-78
2022/10/27 00:21:46;;;;;;;16.10;6.25;;;;;;;12.20;100.00;102123.78;5035887;28;20025;-78
2022/10/27 00:24:12;;;;;;;13.38;6.63;;;;;;;12.21;100.00;102140.97;5035766;28;20071;-78
2022/10/27 00:26:37;;;;;;;16.08;6.90;;;;;;;11.99;100.00;102107.50;5035842;28;20033;-77
2022/10/27 00:29:02;;;;;;;14.73;7.85;;;;;;;12.15;100.00;102143.84;5035881;28;20037;-79
2022/10/27 00:31:28;;;;;;;11.77;7.38;;;;;;;12.05;100.00;102127.94;5036007;28;20488;-77
2022/10/27 00:33:53;;;;;;;12.63;7.25;;;;;;;12.11;100.00;102149.28;5035785;28;20096;-77
2022/10/27 00:36:21;;;;;;;17.85;7.43;;;;;;;11.94;100.00;102125.03;5035850;28;20025;-78
2022/10/27 00:38:47;;;;;;;18.30;7.63;;;;;;;11.81;100.00;102118.75;5035644;28;20469;-77
2022/10/27 00:41:28;;;;;;;13.45;7.20;;;;;;;11.96;100.00;102156.00;5035483;28;20025;-77
2022/10/27 00:43:54;;;;;;;15.32;7.15;;;;;;;11.89;100.00;102150.28;5035649;28;20056;-78
2022/10/27 00:46:46;;;;;;;13.80;7.47;;;;;;;11.82;100.00;102150.66;5035711;28;20103;-78
2022/10/27 00:49:14;;;;;;;14.63;7.20;;;;;;;11.75;100.00;102157.81;5031481;28;20038;-76
2022/10/27 00:51:43;;;;;;;13.00;7.53;;;;;;;11.60;100.00;102137.81;5035602;28;20032;-78
2022/10/27 00:54:09;;;;;;;15.43;8.68;;;;;;;11.72;100.00;102158.81;5034326;28;20022;-78
2022/10/27 00:56:35;;;;;;;14.10;7.85;;;;;;;11.69;100.00;102158.94;5035201;28;20030;-78
2022/10/27 00:59:01;;;;;;;16.10;9.05;;;;;;;11.70;100.00;102162.38;5035173;28;20030;-77
2022/10/27 01:01:27;;;;;;;16.25;8.52;;;;;;;11.51;100.00;102135.69;5035038;28;20045;-76
2022/10/27 01:03:52;;;;;;;17.70;8.80;;;;;;;11.68;100.00;102167.63;5035055;28;20167;-77
2022/10/27 01:06:18;;;;;;;15.07;8.10;;;;;;;11.64;100.00;102158.31;5034965;28;20100;-77
2022/10/27 01:08:44;;;;;;;15.35;8.30;;;;;;;11.63;100.00;102156.66;5035060;28;20041;-77
2022/10/27 01:11:09;;;;;;;14.48;8.38;;;;;;;11.52;100.00;102137.38;5034902;28;20386;-77
2022/10/27 01:13:36;;;;;;;11.15;7.57;;;;;;;11.47;100.00;102145.31;5017254;28;20026;-77
2022/10/27 01:16:29;;;;;;;13.40;8.15;;;;;;;11.54;100.00;102164.84;5034901;28;20033;-77
2022/10/27 01:19:36;;;;;;;15.52;8.27;;;;;;;11.49;100.00;102153.84;5035192;28;20026;-77
2022/10/27 01:22:14;;;;;;;12.43;7.60;;;;;;;11.52;100.00;102166.66;5034083;28;20398;-78
2022/10/27 01:24:57;;;;;;;16.80;8.32;;;;;;;11.38;100.00;102146.56;5034803;28;20025;-78
2022/10/27 01:27:40;;;;;;;14.85;8.95;;;;;;;11.37;100.00;102139.72;5034838;28;20033;-77
2022/10/27 01:30:11;;;;;;;13.85;8.20;;;;;;;11.54;100.00;102167.44;5034744;28;20018;-77
2022/10/27 01:33:14;;;;;;;13.65;8.30;;;;;;;11.56;100.00;102175.94;5034676;28;20033;-77
2022/10/27 01:35:54;;;;;;;15.45;8.75;;;;;;;11.60;100.00;102167.16;5034696;28;20029;-76
2022/10/27 01:38:26;;;;;;;16.20;8.48;;;;;;;11.59;100.00;102177.53;5034293;28;20108;-79
2022/10/27 01:41:00;;;;;;;15.55;8.45;;;;;;;11.62;100.00;102180.84;5016587;28;20033;-78
2022/10/27 01:43:28;;;;;;;16.80;8.70;;;;;;;11.53;100.00;102160.56;5034486;28;20100;-78
2022/10/27 01:45:55;;;;;;;21.20;8.88;;;;;;;11.60;100.00;102167.16;5034300;28;20022;-77
2022/10/27 01:48:21;;;;;;;15.50;8.65;;;;;;;11.70;100.00;102178.75;5034303;28;20033;-78
2022/10/27 01:50:47;;;;;;;15.38;8.85;;;;;;;11.69;100.00;102168.44;5034335;28;20036;-77
2022/10/27 01:53:13;;;;;;;16.27;8.00;;;;;;;11.70;100.00;102168.41;5034312;28;20378;-77
2022/10/27 01:56:03;;;;;;;16.02;8.30;;;;;;;11.78;100.00;102171.44;5015763;28;20095;-77
2022/10/27 01:58:36;;;;;;;16.30;9.05;;;;;;;11.78;100.00;102168.88;5033895;28;20029;-77
2022/10/27 02:01:38;;;;;;;14.38;8.65;;;;;;;11.82;100.00;102168.78;5015414;28;20041;-78
2022/10/27 02:04:09;;;;;;;14.90;8.35;;;;;;;11.78;100.00;102171.44;5033814;28;20033;-77
2022/10/27 02:06:47;;;;;;;15.98;8.00;;;;;;;11.75;100.00;102171.59;5034141;28;20023;-77
2022/10/27 02:09:23;;;;;;;15.60;7.80;;;;;;;11.74;100.00;102163.91;5033910;28;20174;-77
2022/10/27 02:11:51;;;;;;;14.23;8.02;;;;;;;11.69;100.00;102161.53;5033718;28;20025;-78
2022/10/27 02:14:18;;;;;;;14.48;8.40;;;;;;;11.67;100.00;102160.75;5033952;28;20040;-78
2022/10/27 02:16:49;;;;;;;14.13;7.93;;;;;;;11.60;100.00;102161.97;5033900;28;20373;-77
2022/10/27 02:19:31;;;;;;;17.05;8.70;;;;;;;11.55;100.00;102158.75;5033702;28;20513;-78
2022/10/27 02:21:58;;;;;;;15.27;7.40;;;;;;;11.44;100.00;102154.06;5033691;28;20040;-78
2022/10/27 02:24:25;;;;;;;11.60;7.75;;;;;;;11.30;100.00;102134.91;5033813;28;20120;-78
2022/10/27 02:27:04;;;;;;;11.25;7.63;;;;;;;11.18;100.00;102129.38;5033670;28;20034;-78
2022/10/27 02:29:41;;;;;;;14.10;7.07;;;;;;;11.22;100.00;102134.44;5033674;28;20064;-78
2022/10/27 02:32:11;;;;;;;14.90;7.57;;;;;;;11.23;100.00;102144.69;5033109;28;20029;-78
2022/10/27 02:34:38;;;;;;;15.70;7.97;;;;;;;11.14;100.00;102139.94;5033602;28;20358;-78
2022/10/27 02:37:06;;;;;;;14.18;7.80;;;;;;;11.15;100.00;102145.03;5033494;28;20488;-77
2022/10/27 02:39:31;;;;;;;12.20;6.95;;;;;;;11.11;100.00;102148.66;5033637;28;20106;-77
2022/10/27 02:41:57;;;;;;;16.73;8.02;;;;;;;11.07;100.00;102147.09;5033417;28;20104;-78
2022/10/27 02:44:22;;;;;;;13.48;7.75;;;;;;;11.10;100.00;102149.53;5033475;28;20956;-78
2022/10/27 02:46:47;;;;;;;13.80;7.15;;;;;;;10.90;100.00;102114.22;5033166;28;20029;-77
2022/10/27 02:49:13;;;;;;;15.82;7.75;;;;;;;11.07;100.00;102148.84;5033478;28;20038;-78
2022/10/27 02:51:38;;;;;;;14.15;7.88;;;;;;;11.05;100.00;102150.66;5033601;28;20029;-77
2022/10/27 02:54:03;;;;;;;15.57;7.22;;;;;;;10.89;100.00;102119.47;5033393;28;20493;-77
2022/10/27 02:56:28;;;;;;;15.77;7.80;;;;;;;11.02;100.00;102137.91;5121880;23;20417;-78
2022/10/27 02:58:54;;;;;;;13.80;7.18;;;;;;;10.82;100.00;102125.84;5033068;28;20033;-77
2022/10/27 03:01:19;;;;;;;14.60;7.50;;;;;;;10.94;100.00;102132.22;5033140;28;20032;-78
2022/10/27 03:03:44;;;;;;;14.88;8.25;;;;;;;10.81;100.00;102122.38;5033122;28;20030;-78
2022/10/27 03:06:10;;;;;;;16.35;8.18;;;;;;;10.79;100.00;102118.19;5033073;28;20072;-77
2022/10/27 03:08:35;;;;;;;12.88;7.93;;;;;;;10.85;100.00;102125.69;5032965;28;20034;-78
2022/10/27 03:11:00;;;;;;;15.13;8.35;;;;;;;10.87;100.00;102131.63;5033149;28;20049;-78
2022/10/27 03:13:26;;;;;;;20.67;7.85;;;;;;;10.81;100.00;102121.53;5032999;28;20029;-78
2022/10/27 03:15:51;;;;;;;12.07;7.38;;;;;;;10.76;100.00;102115.75;5034505;28;20053;-78
2022/10/27 03:18:16;;;;;;;15.07;7.88;;;;;;;10.53;100.00;102083.16;5039611;28;20018;-78
2022/10/27 03:20:44;;;;;;;14.52;8.30;;;;;;;10.74;100.00;102120.16;5021310;28;20038;-78
2022/10/27 03:23:09;;;;;;;14.20;8.20;;;;;;;10.71;100.00;102121.09;5039663;28;20057;-78
2022/10/27 03:25:36;;;;;;;14.13;8.02;;;;;;;10.70;100.00;102113.41;5039571;28;20049;-78
2022/10/27 03:28:01;;;;;;;17.65;9.05;;;;;;;10.54;100.00;102080.53;5039196;28;20036;-78
2022/10/27 03:30:26;;;;;;;17.17;8.45;;;;;;;10.65;100.00;102098.13;5021959;28;20404;-78
2022/10/27 03:32:52;;;;;;;16.90;8.93;;;;;;;10.76;100.00;102103.69;5039359;28;20037;-78
2022/10/27 03:35:18;;;;;;;15.88;8.75;;;;;;;10.77;100.00;102112.25;5039556;28;20025;-78
2022/10/27 03:37:44;;;;;;;16.10;8.25;;;;;;;10.74;100.00;102112.41;5039502;28;20021;-78
2022/10/27 03:40:10;;;;;;;15.32;8.50;;;;;;;10.72;100.00;102112.47;5039544;28;20052;-78
2022/10/27 03:42:41;;;;;;;16.48;8.25;;;;;;;10.59;100.00;102082.88;5039077;28;20033;-79
2022/10/27 03:45:08;;;;;;;18.90;9.23;;;;;;;10.74;100.00;102115.81;5021653;28;20109;-79
2022/10/27 03:47:33;;;;;;;17.77;8.68;;;;;;;10.65;100.00;102090.38;5039410;28;20067;-77
2022/10/27 03:49:58;;;;;;;18.23;8.82;;;;;;;10.77;100.00;102107.94;5039433;28;20037;-79
2022/10/27 03:52:23;;;;;;;17.15;8.98;;;;;;;10.78;100.00;102109.59;5039642;28;20018;-79
2022/10/27 03:54:49;;;;;;;18.33;9.30;;;;;;;10.71;100.00;102090.09;5039359;28;20044;-79
2022/10/27 03:57:14;;;;;;;17.73;8.95;;;;;;;10.75;100.00;102098.56;5039215;28;20037;-79
2022/10/27 03:59:39;;;;;;;14.55;8.23;;;;;;;10.77;100.00;102086.44;5039197;28;20041;-78
2022/10/27 04:02:05;;;;;;;16.70;9.02;;;;;;;10.67;100.00;102085.16;5039062;28;20044;-79
2022/10/27 04:04:30;;;;;;;18.10;8.75;;;;;;;10.76;100.00;102101.09;5039116;28;20029;-78
2022/10/27 04:06:55;;;;;;;17.27;8.73;;;;;;;10.71;100.00;102095.28;5039187;28;20022;-78
2022/10/27 04:09:20;;;;;;;24.85;9.40;;;;;;;10.73;100.00;102102.97;5039149;28;20025;-79
2022/10/27 04:11:46;;;;;;;17.60;9.60;;;;;;;10.75;100.00;102102.00;5039162;28;20037;-79
2022/10/27 04:14:11;;;;;;;16.30;8.68;;;;;;;10.53;100.00;102068.50;5038969;28;20175;-78
2022/10/27 04:16:50;;;;;;;18.67;8.57;;;;;;;10.73;100.00;102101.22;5039049;28;20026;-81
2022/10/27 04:19:15;;;;;;;17.75;9.15;;;;;;;10.80;100.00;102104.38;5022833;28;20033;-79
2022/10/27 04:21:40;;;;;;;19.85;9.25;;;;;;;10.74;100.00;102109.81;5039101;28;20026;-77
2022/10/27 04:24:06;;;;;;;18.27;10.65;;;;;;;10.76;100.00;102113.16;5038991;28;20036;-78
2022/10/27 04:26:31;;;;;;;21.45;11.30;;;;;;;10.76;100.00;102116.59;5038898;28;20481;-78
2022/10/27 04:28:56;;;;;;;22.70;11.85;;;;;;;10.78;100.00;102124.28;5035753;28;20030;-78
2022/10/27 04:31:22;;;;;;;19.10;11.35;;;;;;;10.78;100.00;102124.28;5035590;28;20075;-77
2022/10/27 04:33:47;;;;;;;17.95;12.30;;;;;;;10.75;100.00;102127.00;5018073;28;20037;-78
2022/10/27 04:36:12;;;;;;;24.95;13.18;;;;;;;10.72;100.00;102124.56;5035962;28;20041;-78
2022/10/27 04:38:38;;;;;;;22.50;13.15;;;;;;;10.63;100.00;102118.03;5017302;28;20108;-78
2022/10/27 04:41:03;;;;;;;19.85;11.75;;;;;;;10.63;100.00;102124.03;5035922;28;20022;-78
2022/10/27 04:43:29;;;;;;;19.60;12.70;;;;;;;10.58;100.00;102122.53;5035592;28;20033;-78
2022/10/27 04:45:57;;;;;;;21.05;11.98;;;;;;;10.54;100.00;102121.84;5035729;28;20033;-78
2022/10/27 04:48:22;;;;;;;21.05;12.60;;;;;;;10.50;100.00;102124.59;5035479;28;20021;-77
2022/10/27 04:50:47;;;;;;;22.90;12.75;;;;;;;10.42;100.00;102122.38;5017146;28;20041;-78
2022/10/27 04:53:13;;;;;;;19.58;12.60;;;;;;;10.42;100.00;102127.53;5035561;28;20029;-77
2022/10/27 04:55:38;;;;;;;22.35;13.23;;;;;;;10.39;100.00;102126.78;5035209;28;20041;-78
2022/10/27 04:58:03;;;;;;;23.77;13.10;;;;;;;10.23;100.00;102099.03;5035527;28;20500;-77
2022/10/27 05:00:29;;;;;;;23.95;13.57;;;;;;;10.32;100.00;102126.19;5035290;28;20028;-77
2022/10/27 05:02:56;;;;;;;26.30;13.52;;;;;;;10.37;100.00;102139.78;5035389;28;20022;-78
2022/10/27 05:05:22;;;;;;;24.88;14.00;;;;;;;10.42;100.00;102137.84;5035179;28;20115;-78
2022/10/27 05:08:01;;;;;;;24.95;15.32;;;;;;;10.45;100.00;102135.13;5035005;28;20022;-77
2022/10/27 05:10:29;;;;;;;21.60;14.60;;;;;;;10.45;100.00;102127.38;5035176;28;20033;-78
2022/10/27 05:12:54;;;;;;;22.50;13.55;;;;;;;10.30;100.00;102107.34;5035127;28;20026;-78
2022/10/27 05:15:22;;;;;;;26.50;14.95;;;;;;;10.52;100.00;102133.13;5034905;28;20029;-78
2022/10/27 05:17:47;;;;;;;22.20;13.63;;;;;;;10.46;100.00;102129.06;5017230;28;20119;-78
2022/10/27 05:20:13;;;;;;;20.17;13.70;;;;;;;10.42;100.00;102132.69;5034812;28;20473;-78
2022/10/27 05:22:39;;;;;;;22.42;14.32;;;;;;;10.29;100.00;102111.69;5034951;28;20030;-78
2022/10/27 05:25:06;;;;;;;22.52;15.00;;;;;;;10.42;100.00;102119.78;5034787;28;20022;-77
2022/10/27 05:27:31;;;;;;;23.83;14.38;;;;;;;10.30;100.00;102102.19;5034752;28;20447;-78
2022/10/27 05:29:57;;;;;;;23.25;16.20;;;;;;;10.43;100.00;102121.47;5034522;28;20087;-78
2022/10/27 05:32:22;;;;;;;26.48;16.60;;;;;;;10.53;100.00;102120.16;5034767;28;20079;-79
2022/10/27 05:34:47;;;;;;;27.30;15.98;;;;;;;10.52;100.00;102115.91;5034679;28;20030;-79
2022/10/27 05:37:13;;;;;;;23.75;16.55;;;;;;;10.60;100.00;102129.31;5016958;28;20112;-78
2022/10/27 05:39:39;;;;;;;24.70;15.48;;;;;;;10.65;100.00;102128.31;5034213;28;20029;-78
2022/10/27 05:42:04;;;;;;;27.40;16.50;;;;;;;10.69;100.00;102127.25;5034482;28;20417;-80
2022/10/27 05:44:29;;;;;;;26.38;15.18;;;;;;;10.68;100.00;102118.66;5034208;28;20578;-78
2022/10/27 05:46:55;;;;;;;22.70;15.38;;;;;;;10.62;100.00;102104.28;5034348;28;20431;-78
2022/10/27 05:49:20;;;;;;;21.33;14.75;;;;;;;10.82;100.00;102120.66;5034092;28;20045;-79
2022/10/27 05:51:48;;;;;;;28.92;14.95;;;;;;;10.83;100.00;102120.59;5034529;28;20083;-79
2022/10/27 05:54:13;;;;;;;28.05;16.08;;;;;;;10.79;100.00;102103.53;5034414;28;20469;-78
2022/10/27 05:56:39;;;;;;;28.60;15.65;;;;;;;10.91;100.00;102112.50;5034048;28;20041;-77
2022/10/27 05:59:04;;;;;;;26.80;15.63;;;;;;;10.81;100.00;102091.38;5034348;28;20057;-78
2022/10/27 06:01:29;;;;;;;23.17;15.65;;;;;;;10.91;100.00;102107.31;5034188;28;20051;-80
2022/10/27 06:03:55;;;;;;;23.63;14.50;;;;;;;10.99;100.00;102107.81;5033875;28;20549;-78
2022/10/27 06:06:20;;;;;;;26.55;14.80;;;;;;;11.00;100.00;102104.34;5034035;28;20033;-79
2022/10/27 06:08:45;;;;;;;21.90;13.20;;;;;;;11.01;100.00;102111.22;5034100;28;20021;-79
2022/10/27 06:11:10;;;;;;;22.20;12.98;;;;;;;11.02;100.00;102112.88;5034019;28;20430;-79
2022/10/27 06:13:36;;;;;;;25.35;11.95;;;;;;;10.94;100.00;102096.03;5034078;28;20021;-79
2022/10/27 06:16:01;;;;;;;21.50;12.50;;;;;;;10.96;100.00;102086.47;5033620;28;20470;-80
2022/10/27 06:18:27;;;;;;;25.40;14.18;;;;;;;11.06;100.00;102104.06;5033607;28;20109;-78
2022/10/27 06:20:52;;;;;;;24.33;15.00;;;;;;;11.11;100.00;102102.13;5033790;28;20405;-78
2022/10/27 06:23:17;;;;;;;28.83;15.45;;;;;;;10.97;100.00;102075.22;5033716;28;20036;-79
2022/10/27 06:25:42;;;;;;;28.73;14.15;;;;;;;11.10;100.00;102097.84;5015977;28;20049;-79
2022/10/27 06:28:08;;;;;;;24.38;13.15;;;;;;;11.16;100.00;102105.34;5033703;28;20065;-79
2022/10/27 06:30:33;;;;;;;21.33;12.32;;;;;;;11.03;100.00;102075.78;5033286;28;20063;-80
2022/10/27 06:32:59;;;;;;;19.85;12.52;;;;;;;10.99;100.00;102061.31;5033589;28;20017;-79
2022/10/27 06:35:24;;;;;;;23.33;11.82;;;;;;;11.08;100.00;102070.38;5033711;28;20034;-79
2022/10/27 06:37:49;;;;;;;22.23;11.68;;;;;;;11.16;100.00;102073.47;5015674;28;20539;-79
2022/10/27 06:40:17;;;;;;;21.77;12.15;;;;;;;11.25;100.00;102090.31;5033915;28;20061;-79
2022/10/27 06:42:44;;;;;;;19.60;12.25;;;;;;;11.29;100.00;102095.25;5033425;28;20484;-79
2022/10/27 06:45:09;;;;;;;20.73;12.05;;;;;;;11.24;100.00;102086.06;5033405;28;20075;-79
2022/10/27 06:47:35;;;;;;;18.50;11.23;;;;;;;11.30;100.00;102083.19;5033261;28;20061;-79
2022/10/27 06:50:00;;;;;;;19.35;11.25;;;;;;;11.15;100.00;102066.63;5033199;28;20389;-80
2022/10/27 06:52:26;;;;;;;19.02;10.73;;;;;;;11.13;100.00;102064.13;5032564;28;20027;-78
2022/10/27 06:54:51;;;;;;;21.48;12.70;;;;;;;11.28;100.00;102085.84;5033340;28;20057;-78
2022/10/27 06:57:17;;;;;;;21.98;11.77;;;;;;;11.15;100.00;102062.28;5033158;28;20327;-79
2022/10/27 06:59:42;;;;;;;24.67;13.00;;;;;;;11.13;100.00;102061.53;5033204;28;20068;-79
2022/10/27 07:02:10;;;;;;;21.48;11.57;;;;;;;11.07;100.00;102043.72;5032971;28;20026;-79
2022/10/27 07:04:36;;;;;;;20.60;11.15;;;;;;;11.30;100.00;102084.00;5033074;28;20049;-79
2022/10/27 07:07:01;;;;;;;21.48;11.55;;;;;;;11.35;100.00;102081.22;5033060;28;20068;-78
2022/10/27 07:09:26;;;;;;;26.95;12.07;;;;;;;11.41;100.00;102078.38;5033001;28;20543;-78
2022/10/27 07:11:52;;;;;;;19.98;11.50;;;;;;;11.45;100.00;102080.72;5015472;28;20036;-79
2022/10/27 07:14:17;;;;;;;18.63;11.15;;;;;;;11.37;100.00;102056.13;5033019;28;20475;-79
2022/10/27 07:16:42;;;;;;;18.42;11.40;;;;;;;11.47;100.00;102070.31;5032811;28;20029;-76
2022/10/27 07:19:08;;;;;;;20.70;11.27;;;;;;;11.63;100.00;102086.78;5033052;28;20080;-78
2022/10/27 07:21:33;;;;;;;20.75;11.80;;;;;;;11.68;100.00;102092.56;5032832;28;20052;-78
2022/10/27 07:23:58;;;;;;;20.98;11.70;;;;;;;11.63;100.00;102078.19;5032916;28;20025;-77
2022/10/27 07:26:23;;;;;;;21.25;11.18;;;;;;;11.77;100.00;102093.88;5033017;28;20038;-75
2022/10/27 07:28:49;;;;;;;18.13;10.30;;;;;;;11.75;100.00;102093.13;5033046;28;20105;-78
2022/10/27 07:31:14;;;;;;;21.52;10.38;;;;;;;11.82;100.00;102084.19;5015298;28;20018;-78
2022/10/27 07:33:39;;;;;;;24.15;10.13;;;;;;;11.84;100.00;102092.72;5032886;28;20537;-75
2022/10/27 07:36:05;;;;;;;25.30;10.02;;;;;;;11.89;100.00;102077.78;5032862;28;20034;-76
2022/10/27 07:38:31;;;;;;;25.17;10.88;;;;;;;11.92;100.00;102072.50;5014489;28;20037;-78
2022/10/27 07:40:56;;;;;;;19.05;10.25;;;;;;;11.98;100.00;102073.94;5032172;28;20087;-79
2022/10/27 07:43:22;;;;;;;20.25;10.63;;;;;;;12.02;100.00;102078.91;5055150;22;20056;-76
2022/10/27 07:45:47;;;;;;;18.67;10.93;;;;;;;12.00;100.00;102067.78;5032929;28;20025;-76
2022/10/27 07:48:14;;;;;;;16.42;9.88;;;;;;;12.13;100.00;102077.53;5031521;28;20429;-73
2022/10/27 07:50:41;;;;;;;16.83;10.23;;;;;;;12.20;100.00;102082.34;5032325;28;20029;-77
2022/10/27 07:53:07;;;;;;;18.98;10.68;;;;;;;12.29;100.00;102084.47;5032806;28;20111;-72
2022/10/27 07:55:35;;;;;;;15.73;10.60;;;;;;;12.16;100.00;102047.13;5032511;28;20025;-77
2022/10/27 07:58:03;;;;;;;15.55;10.10;;;;;;;12.47;100.00;102090.44;5032414;28;20021;-76
2022/10/27 08:00:30;;;;;;;18.67;10.23;;;;;;;12.54;100.00;102075.44;5032720;28;20025;-75
2022/10/27 08:02:58;;;;;;;17.52;9.75;;;;;;;12.72;100.00;102091.81;5034349;28;20428;-77
2022/10/27 08:05:23;;;;;;;17.42;9.75;;;;;;;12.84;100.00;102096.34;5036377;28;20018;-75
2022/10/27 08:07:49;;;;;;;16.08;9.10;;;;;;;12.83;100.00;102068.75;5036390;28;20525;-79
2022/10/27 08:10:14;;;;;;;17.98;9.07;;;;;;;13.06;100.00;102089.09;5035970;28;20036;-75
2022/10/27 08:12:43;;;;;;;16.20;9.65;;;;;;;12.90;100.00;102049.38;5036384;28;20061;-78
2022/10/27 08:15:10;;;;;;;19.08;10.43;;;;;;;13.17;100.00;102088.53;5036055;28;20013;-79
2022/10/27 08:17:37;;;;;;;20.92;9.38;;;;;;;13.22;100.00;102093.50;5035911;28;20030;-76
2022/10/27 08:20:02;;;;;;;17.50;9.23;;;;;;;13.20;100.00;102083.22;5035920;28;20366;-76
2022/10/27 08:22:27;;;;;;;19.00;7.38;;;;;;;13.29;100.00;102087.91;5035762;28;20064;-75
2022/10/27 08:24:53;;;;;;;17.30;7.93;;;;;;;13.32;100.00;102082.56;5035920;28;20473;-78
2022/10/27 08:27:18;;;;;;;16.10;7.72;;;;;;;13.36;100.00;102072.81;5036363;28;20037;-78
2022/10/27 08:29:43;;;;;;;14.43;8.15;;;;;;;13.39;100.00;102077.88;5036005;28;20026;-78
2022/10/27 08:32:09;;;;;;;17.55;8.82;;;;;;;13.40;100.00;102072.59;5034295;28;20022;-77
2022/10/27 08:34:35;;;;;;;14.60;8.35;;;;;;;13.48;100.00;102079.97;5016324;28;20385;-78
2022/10/27 08:37:00;;;;;;;18.92;8.35;;;;;;;13.54;100.00;102076.19;5016043;28;20145;-77
2022/10/27 08:39:25;;;;;;;17.83;8.27;;;;;;;13.62;100.00;102074.00;5016330;28;20022;-76
2022/10/27 08:42:13;;;;;;;18.98;8.30;;;;;;;13.70;100.00;102072.66;5016016;28;20049;-73
2022/10/27 08:44:46;;;;;;;12.55;8.10;;;;;;;13.80;100.00;102067.78;5015578;28;20104;-75
2022/10/27 08:47:19;;;;;;;14.55;7.80;;;;;;;13.91;100.00;102065.41;4998944;28;20026;-77
2022/10/27 08:49:50;;;;;;;14.20;7.22;;;;;;;14.02;100.00;102069.97;5015481;28;20026;-76
2022/10/27 08:52:24;;;;;;;19.30;7.78;;;;;;;13.99;100.00;102054.56;5015680;28;20026;-78
2022/10/27 08:54:53;;;;;;;15.50;7.13;;;;;;;14.22;100.00;102072.25;5015952;28;20022;-76
2022/10/27 08:57:24;;;;;;;12.77;6.90;;;;;;;14.28;100.00;102051.13;5015707;28;20164;-76
2022/10/27 08:59:57;;;;;;;13.48;6.75;;;;;;;14.38;100.00;102061.81;5015852;28;20025;-76
2022/10/27 09:02:40;;;;;;;15.65;6.57;;;;;;;14.47;100.00;102053.50;5015693;28;20083;-76
2022/10/27 09:05:32;;;;;;;15.10;6.78;;;;;;;14.58;99.54;102055.44;4997544;28;20017;-79
2022/10/27 09:08:09;;;;;;;11.57;5.07;;;;;;;14.72;98.42;102044.19;5015291;28;20394;-78
2022/10/27 09:10:50;;;;;;;11.45;4.38;;;;;;;14.84;95.65;102033.03;5015325;28;20025;-78
2022/10/27 09:13:23;;;;;;;14.93;4.30;;;;;;;14.92;95.21;102020.41;5015042;28;20026;-78
2022/10/27 09:15:58;;;;;;;12.95;3.40;;;;;;;15.13;93.42;102029.44;5014874;28;20026;-79
2022/10/27 09:18:29;;;;;;;11.98;4.35;;;;;;;15.27;92.64;102018.19;5015187;28;20458;-78
2022/10/27 09:21:01;;;;;;;11.20;4.25;;;;;;;15.39;92.85;102019.16;4997524;28;20033;-78
2022/10/27 09:23:40;;;;;;;11.48;3.88;;;;;;;15.48;91.48;102026.38;5015075;28;20029;-78
2022/10/27 09:26:06;;;;;;;11.88;3.88;;;;;;;15.59;89.84;102023.09;5015130;28;20033;-77
2022/10/27 09:28:45;;;;;;;8.88;3.20;;;;;;;15.62;88.70;102012.50;5015100;28;20052;-77
2022/10/27 09:31:27;;;;;;;9.02;3.47;;;;;;;15.69;88.89;101993.78;5015040;28;20049;-76
2022/10/27 09:34:02;;;;;;;9.02;3.80;;;;;;;16.01;87.26;102024.66;5014599;28;20112;-80
2022/10/27 09:36:28;;;;;;;7.85;3.78;;;;;;;16.13;86.09;102005.63;5014798;28;20053;-79
2022/10/27 09:38:53;;;;;;;9.43;3.03;;;;;;;16.20;86.44;102006.84;5015075;28;20069;-79
2022/10/27 09:41:18;;;;;;;8.93;2.90;;;;;;;16.33;84.89;102014.69;5014791;28;20053;-77
2022/10/27 09:43:44;;;;;;;8.52;2.97;;;;;;;16.41;84.72;102008.94;5014775;28;20046;-78
2022/10/27 09:46:23;;;;;;;9.52;3.15;;;;;;;16.34;85.35;101978.09;5014598;28;20053;-80
2022/10/27 09:48:53;;;;;;;9.55;3.00;;;;;;;16.31;82.11;101956.59;5014437;28;20061;-80
2022/10/27 09:51:23;;;;;;;8.00;3.23;;;;;;;16.58;82.80;101983.34;5014508;28;20026;-81
2022/10/27 09:53:51;;;;;;;7.05;2.83;;;;;;;16.71;81.27;101980.75;4997063;28;20451;-79
2022/10/27 09:56:24;;;;;;;9.52;2.88;;;;;;;16.86;81.15;101997.94;5014361;28;20034;-80
2022/10/27 09:58:56;;;;;;;6.07;2.88;;;;;;;16.86;80.35;101981.44;5014498;28;20018;-80
2022/10/27 10:01:24;;;;;;;9.70;3.03;;;;;;;17.05;80.79;102000.06;5014117;28;20034;-80
2022/10/27 10:03:55;;;;;;;8.15;3.15;;;;;;;17.03;79.08;101983.69;5014191;28;20042;-80
2022/10/27 10:06:29;;;;;;;6.63;2.95;;;;;;;17.19;79.08;102007.72;5014022;28;20029;-79
2022/10/27 10:09:11;;;;;;;7.32;2.42;;;;;;;17.13;79.31;101987.31;5014060;28;20469;-79
2022/10/27 10:11:37;;;;;;;8.75;3.50;;;;;;;17.29;78.59;102004.47;5014277;28;20042;-81
2022/10/27 10:14:02;;;;;;;9.00;2.95;;;;;;;17.29;78.67;101991.41;5019691;28;20101;-79
2022/10/27 10:22:38;;;;;;;8.68;3.10;;;;;;;17.54;80.17;101983.44;5030262;28;20115;-82
2022/10/27 10:28:59;;;;;;;;;;;;;;;;;;;;;
2022/10/27 10:32:24;;;;;;;;;;;;;;;;;;;;;
2022/10/27 10:38:23;;;;;;;10.18;2.70;;;;;;;17.98;77.11;101969.69;4934384;29;20042;-81
2022/10/27 10:41:31;;;;;;;8.90;2.88;;;;;;;17.01;76.21;101809.88;4934281;29;20498;-79
2022/10/27 10:44:32;;;;;;;10.25;3.13;;;;;;;18.14;77.09;101971.13;4896278;29;20072;-81
2022/10/27 10:47:29;;;;;;;5.93;2.70;;;;;;;17.58;76.95;101850.84;4896366;29;20036;-81
2022/10/27 10:50:22;;;;;;;10.95;2.92;;;;;;;18.28;75.21;101965.66;4896002;29;20032;-81
2022/10/27 11:02:55;;;;;;;8.80;2.47;;;;;;;18.44;74.21;101910.38;4869927;29;20055;-79
2022/10/27 11:05:40;;;;;;;8.02;2.47;;;;;;;18.67;74.69;101943.41;4926318;28;20035;-80
2022/10/27 11:08:22;;;;;;;10.20;2.75;;;;;;;18.60;73.69;101916.06;4972407;28;20039;-80
2022/10/27 11:10:50;;;;;;;8.35;2.38;;;;;;;18.71;72.54;101942.25;4971961;28;20588;-77
2022/10/27 11:13:19;;;;;;;6.65;2.20;;;;;;;18.51;72.97;101914.19;4972446;28;20066;-81
2022/10/27 11:15:56;;;;;;;9.75;2.65;;;;;;;18.71;73.41;101951.88;4972299;28;20030;-81
2022/10/27 11:18:28;;;;;;;6.70;2.45;;;;;;;18.71;72.91;101955.31;4972262;28;20498;-82
2022/10/27 11:20:57;;;;;;;7.75;2.70;;;;;;;18.68;72.74;101946.88;5006594;28;20050;-81
2022/10/27 11:23:28;;;;;;;5.80;2.30;;;;;;;18.65;71.99;101934.88;5032818;28;20404;-80
2022/10/27 11:25:57;;;;;;;9.00;2.00;;;;;;;18.66;72.21;101920.00;5032766;28;20025;-82
2022/10/27 11:28:31;;;;;;;8.02;2.67;;;;;;;18.77;73.58;101941.72;5015247;28;20037;-74
2022/10/27 11:31:04;;;;;;;10.52;2.58;;;;;;;18.74;72.70;101941.16;5032997;28;20384;-74
2022/10/27 11:33:44;;;;;;;4.35;1.85;;;;;;;18.62;74.45;101922.00;5032862;28;20392;-78
2022/10/27 11:36:15;;;;;;;10.65;2.72;;;;;;;18.75;73.90;101942.81;5032595;28;20496;-76
2022/10/27 11:39:03;;;;;;;8.70;2.70;;;;;;;18.78;76.00;101938.19;5036176;28;20025;-73
2022/10/27 11:41:38;;;;;;;9.73;2.30;;;;;;;18.76;74.39;101915.69;5036810;28;20500;-75
2022/10/27 11:44:21;;;;;;;9.02;2.83;;;;;;;18.88;74.56;101912.13;5036973;28;20029;-77
2022/10/27 11:46:59;;;;;;;12.23;2.40;;;;;;;19.00;73.36;101920.75;5036755;28;20048;-75